Time;durP1;ratioP1;P1;durP2;ratioP2;P2;SDS_P1;SDS_P2;PMS_P1;PMS_P2;Temp;Humidity;BMP_temperature;BMP_pressure;BME280_temperature;BME280_humidity;BME280_pressure;Samples;Min_cycle;Max_cycle;Signal;HPM_P1;HPM_P2
2023/09/05 00:00:10;;;;;;;3.33;1.92;;;;;;;26.67;33.66;96653.81;5081917;28;20103;-29
2023/09/05 00:02:40;;;;;;;5.68;2.00;;;;;;;26.60;34.05;96643.28;5087427;28;20024;-27
2023/09/05 00:05:07;;;;;;;2.33;1.98;;;;;;;26.65;33.84;96647.28;5083609;28;20024;-27
2023/09/05 00:07:35;;;;;;;3.78;2.25;;;;;;;26.59;33.98;96625.09;5084928;28;20032;-27
2023/09/05 00:10:04;;;;;;;3.15;2.13;;;;;;;26.70;34.08;96626.97;5084590;28;20489;-27
2023/09/05 00:12:31;;;;;;;7.25;1.83;;;;;;;26.81;34.04;96619.19;5081625;28;20059;-30
2023/09/05 00:14:57;;;;;;;3.95;1.83;;;;;;;26.48;34.20;96631.56;5080745;28;20042;-27
2023/09/05 00:17:22;;;;;;;6.18;1.80;;;;;;;26.61;34.52;96630.88;5082472;28;20060;-29
2023/09/05 00:19:49;;;;;;;3.45;2.17;;;;;;;26.62;34.30;96628.84;5078606;28;20043;-27
2023/09/05 00:22:15;;;;;;;3.35;2.20;;;;;;;26.63;34.12;96625.53;5077396;28;20136;-26
2023/09/05 00:24:42;;;;;;;2.92;1.88;;;;;;;26.86;33.73;96616.84;5081969;28;20115;-28
2023/09/05 00:27:09;;;;;;;4.57;2.10;;;;;;;26.62;34.07;96624.03;5081792;28;20032;-27
2023/09/05 00:29:35;;;;;;;3.40;1.92;;;;;;;26.62;34.12;96624.03;5082698;28;20024;-28
2023/09/05 00:32:03;;;;;;;3.28;2.10;;;;;;;26.70;33.89;96624.19;5080163;28;20069;-27
2023/09/05 00:34:31;;;;;;;4.15;1.83;;;;;;;26.59;34.31;96622.31;5081325;28;20069;-27
2023/09/05 00:37:00;;;;;;;3.47;1.95;;;;;;;26.46;34.43;96627.81;5084777;28;20032;-28
2023/09/05 00:39:26;;;;;;;5.53;1.98;;;;;;;26.44;34.38;96622.81;5084401;28;20021;-27
2023/09/05 00:41:54;;;;;;;2.88;2.00;;;;;;;26.47;34.56;96626.53;5080636;28;20048;-28
2023/09/05 00:44:19;;;;;;;3.28;1.90;;;;;;;26.63;34.11;96617.19;5080252;28;20032;-26
2023/09/05 00:46:46;;;;;;;2.40;1.83;;;;;;;26.45;34.57;96618.75;5081420;28;20020;-27
2023/09/05 00:49:15;;;;;;;4.30;2.15;;;;;;;26.52;34.59;96624.97;5084597;28;20469;-27
2023/09/05 00:51:43;;;;;;;2.85;1.95;;;;;;;26.50;34.06;96625.50;5076296;28;20385;-27
2023/09/05 00:54:10;;;;;;;5.00;2.10;;;;;;;26.59;34.37;96621.56;5083350;28;20020;-27
2023/09/05 00:56:36;;;;;;;3.35;2.40;;;;;;;26.70;34.03;96610.28;5085508;28;20020;-26
2023/09/05 00:59:04;;;;;;;4.18;1.80;;;;;;;26.47;34.33;96613.38;5081710;28;20025;-28
2023/09/05 01:01:30;;;;;;;2.88;1.85;;;;;;;26.49;34.59;96612.88;5080131;28;20362;-27
2023/09/05 01:04:00;;;;;;;4.97;2.15;;;;;;;26.44;34.43;96616.50;5080527;28;20026;-27
2023/09/05 01:07:02;;;;;;;3.35;1.92;;;;;;;26.39;34.81;96618.06;5081052;28;20020;-27
2023/09/05 01:09:46;;;;;;;5.87;2.30;;;;;;;26.41;34.78;96620.31;5076404;28;20484;-27
2023/09/05 01:12:11;;;;;;;4.85;1.90;;;;;;;26.49;34.73;96612.88;5083075;28;20490;-26
2023/09/05 01:14:37;;;;;;;4.13;2.10;;;;;;;26.50;34.83;96611.59;5088014;28;20090;-26
2023/09/05 01:17:05;;;;;;;3.85;2.13;;;;;;;26.44;34.59;96622.06;5080104;28;20530;-28
2023/09/05 01:19:34;;;;;;;3.92;2.13;;;;;;;26.13;35.16;96610.31;5081257;28;20477;-27
2023/09/05 01:22:13;;;;;;;3.63;1.70;;;;;;;26.37;34.90;96601.16;5080956;28;20028;-26
2023/09/05 01:24:40;;;;;;;3.22;1.90;;;;;;;26.44;34.82;96589.44;5080801;28;20031;-28
2023/09/05 01:27:07;;;;;;;2.40;2.17;;;;;;;26.45;34.27;96604.09;5080276;28;20020;-28
2023/09/05 01:29:39;;;;;;;3.83;2.00;;;;;;;26.23;34.63;96607.16;5080661;28;20031;-27
2023/09/05 01:32:07;;;;;;;3.85;1.73;;;;;;;26.38;34.30;96596.34;5073630;28;20017;-26
2023/09/05 01:34:33;;;;;;;5.07;1.88;;;;;;;26.43;34.32;96587.19;5081164;28;20023;-26
2023/09/05 01:36:58;;;;;;;3.10;1.98;;;;;;;26.29;34.67;96589.16;5080171;28;20032;-27
2023/09/05 01:39:24;;;;;;;4.13;2.10;;;;;;;26.48;34.17;96578.75;5080475;28;20028;-29
2023/09/05 01:41:50;;;;;;;5.75;2.10;;;;;;;26.01;34.83;96589.50;5080202;28;20113;-28
2023/09/05 01:44:16;;;;;;;3.95;1.75;;;;;;;26.19;34.64;96579.66;5080543;28;20024;-27
2023/09/05 01:46:41;;;;;;;4.55;2.03;;;;;;;26.28;34.76;96570.97;5080715;28;20421;-28
2023/09/05 01:49:07;;;;;;;3.58;2.03;;;;;;;26.31;34.98;96555.25;5080397;28;20020;-28
2023/09/05 01:51:32;;;;;;;4.97;1.88;;;;;;;26.38;34.77;96574.09;5080299;28;20020;-27
2023/09/05 01:53:58;;;;;;;3.10;1.80;;;;;;;26.12;35.21;96574.69;5080006;28;20020;-27
2023/09/05 01:56:23;;;;;;;3.20;1.73;;;;;;;26.20;35.09;96575.63;5080385;28;20107;-27
2023/09/05 01:58:49;;;;;;;3.20;1.92;;;;;;;26.51;34.81;96578.97;5087347;28;20023;-27
2023/09/05 02:01:14;;;;;;;5.10;2.05;;;;;;;26.44;34.90;96583.88;5079603;28;20024;-27
2023/09/05 02:03:40;;;;;;;3.40;2.13;;;;;;;26.35;35.11;96580.72;5087425;28;20027;-27
2023/09/05 02:06:05;;;;;;;3.83;2.20;;;;;;;26.33;35.26;96567.38;5078595;28;20541;-27
2023/09/05 02:08:34;;;;;;;3.80;2.25;;;;;;;26.38;35.20;96576.88;5091260;28;20020;-27
2023/09/05 02:11:00;;;;;;;3.25;1.83;;;;;;;26.35;35.36;96578.69;5091537;28;20031;-27
2023/09/05 02:13:26;;;;;;;5.18;1.88;;;;;;;26.21;35.50;96568.75;5084774;28;20392;-28
2023/09/05 02:15:51;;;;;;;4.55;2.13;;;;;;;26.23;35.58;96576.56;5089471;28;20024;-27
2023/09/05 02:18:16;;;;;;;5.50;2.10;;;;;;;26.30;35.80;96587.88;5078243;28;20381;-27
2023/09/05 02:20:42;;;;;;;2.63;2.00;;;;;;;26.32;35.79;96573.44;5083939;28;20062;-27
2023/09/05 02:23:07;;;;;;;3.72;2.05;;;;;;;26.18;36.12;96589.28;5083877;28;20033;-27
2023/09/05 02:25:33;;;;;;;4.10;2.35;;;;;;;26.22;35.80;96581.38;5083542;28;20025;-27
2023/09/05 02:27:59;;;;;;;2.95;1.73;;;;;;;26.24;35.76;96583.63;5084385;28;20025;-27
2023/09/05 02:30:25;;;;;;;4.07;2.00;;;;;;;26.22;36.06;96595.28;5083819;28;20025;-27
2023/09/05 02:32:51;;;;;;;4.28;2.03;;;;;;;26.13;36.40;96593.63;5087302;28;20457;-27
2023/09/05 02:35:20;;;;;;;4.07;2.05;;;;;;;26.20;36.20;96605.44;5086596;28;20059;-27
2023/09/05 02:37:50;;;;;;;3.65;2.25;;;;;;;26.33;36.14;96606.28;5078361;28;20024;-26
2023/09/05 02:40:15;;;;;;;3.20;1.85;;;;;;;26.27;36.00;96607.59;5081312;28;20049;-28
2023/09/05 02:42:40;;;;;;;2.92;2.20;;;;;;;26.43;35.68;96612.22;5091038;28;20031;-27
2023/09/05 02:45:06;;;;;;;5.13;2.00;;;;;;;26.44;35.49;96608.91;5083618;28;20532;-28
2023/09/05 02:47:32;;;;;;;4.75;1.73;;;;;;;26.54;35.70;96606.47;5090589;28;20024;-26
2023/09/05 02:49:57;;;;;;;6.63;1.95;;;;;;;26.28;35.71;96604.31;5083766;28;20385;-26
2023/09/05 02:52:24;;;;;;;2.88;1.80;;;;;;;26.31;35.86;96602.53;5086786;28;20024;-27
2023/09/05 02:54:50;;;;;;;4.20;1.75;;;;;;;26.36;36.18;96610.03;5085252;28;20020;-27
2023/09/05 02:57:16;;;;;;;2.53;1.73;;;;;;;26.32;36.30;96612.38;5076534;28;20016;-27
2023/09/05 02:59:41;;;;;;;4.10;2.13;;;;;;;26.32;36.25;96615.91;5083383;28;20024;-28
2023/09/05 03:02:07;;;;;;;3.70;1.80;;;;;;;26.34;35.97;96615.34;5083282;28;20024;-26
2023/09/05 03:04:32;;;;;;;4.47;1.90;;;;;;;26.26;36.37;96620.00;5082933;28;20466;-27
2023/09/05 03:07:02;;;;;;;5.03;2.28;;;;;;;26.29;36.24;96621.75;5081779;28;20075;-27
2023/09/05 03:09:28;;;;;;;3.90;1.85;;;;;;;26.27;35.88;96608.34;5083228;28;20389;-28
2023/09/05 03:11:54;;;;;;;3.03;2.03;;;;;;;26.13;36.80;96593.63;5081799;28;20108;-27
2023/09/05 03:14:19;;;;;;;7.10;2.33;;;;;;;26.09;36.37;96584.84;5090269;28;20103;-27
2023/09/05 03:16:45;;;;;;;5.70;2.20;;;;;;;26.15;36.61;96586.81;5079952;28;20493;-27
2023/09/05 03:19:11;;;;;;;6.18;2.05;;;;;;;26.31;36.60;96602.53;5078200;28;20462;-27
2023/09/05 03:21:38;;;;;;;3.63;1.90;;;;;;;26.19;36.42;96604.69;5085671;28;20032;-27
2023/09/05 03:24:04;;;;;;;2.40;1.90;;;;;;;26.43;36.24;96628.91;5086508;28;20028;-27
2023/09/05 03:26:29;;;;;;;3.75;1.88;;;;;;;26.37;36.42;96631.00;5075178;28;20112;-27
2023/09/05 03:28:55;;;;;;;3.95;1.92;;;;;;;26.32;36.23;96626.28;5083116;28;20460;-28
2023/09/05 03:31:22;;;;;;;3.97;1.73;;;;;;;26.38;36.58;96618.59;5082103;28;20024;-27
2023/09/05 03:33:48;;;;;;;5.50;2.20;;;;;;;26.10;36.89;96611.34;5077589;28;20031;-28
2023/09/05 03:36:14;;;;;;;4.20;1.88;;;;;;;26.12;36.67;96603.25;5079088;28;20017;-27
2023/09/05 03:38:39;;;;;;;4.07;1.80;;;;;;;26.26;36.56;96604.06;5082951;28;20031;-27
2023/09/05 03:41:05;;;;;;;4.13;2.08;;;;;;;25.93;37.06;96590.63;5082403;28;20048;-27
2023/09/05 03:43:30;;;;;;;5.07;2.00;;;;;;;26.06;37.02;96599.81;5082218;28;20385;-27
2023/09/05 03:45:56;;;;;;;7.15;2.10;;;;;;;26.23;36.38;96615.50;5082377;28;20475;-28
2023/09/05 03:48:21;;;;;;;3.35;2.00;;;;;;;26.00;37.26;96621.34;5080134;28;20020;-27
2023/09/05 03:50:46;;;;;;;5.55;2.15;;;;;;;26.06;37.04;96635.19;5077023;28;20099;-27
2023/09/05 03:53:12;;;;;;;7.15;1.92;;;;;;;26.14;36.80;96633.31;5085857;28;20065;-27
2023/09/05 03:55:37;;;;;;;5.40;2.13;;;;;;;26.15;36.69;96628.50;5078877;28;20515;-27
2023/09/05 03:58:04;;;;;;;3.05;1.83;;;;;;;26.03;36.98;96631.44;5089144;28;20104;-27
2023/09/05 04:00:32;;;;;;;5.55;2.17;;;;;;;26.14;36.76;96616.63;5086596;28;20032;-27
2023/09/05 04:02:59;;;;;;;7.18;2.20;;;;;;;26.19;36.72;96609.50;5076458;28;20032;-26
2023/09/05 04:05:25;;;;;;;4.75;2.00;;;;;;;26.02;37.09;96604.91;5082515;28;20409;-27
2023/09/05 04:07:50;;;;;;;4.68;1.73;;;;;;;26.15;36.59;96595.13;5081851;28;20016;-27
2023/09/05 04:10:16;;;;;;;4.22;1.90;;;;;;;26.12;36.57;96596.94;5081997;28;20534;-27
2023/09/05 04:12:41;;;;;;;5.57;2.10;;;;;;;26.02;36.87;96598.59;5085145;28;20538;-26
2023/09/05 04:15:07;;;;;;;5.15;2.10;;;;;;;26.13;37.03;96613.09;5084664;28;20082;-27
2023/09/05 04:17:33;;;;;;;2.45;1.95;;;;;;;26.02;36.84;96629.91;5081457;28;20035;-26
2023/09/05 04:19:58;;;;;;;4.10;2.00;;;;;;;26.16;36.95;96624.44;5080700;28;20052;-27
2023/09/05 04:22:27;;;;;;;4.15;2.08;;;;;;;26.05;36.86;96623.31;5076526;28;20450;-29
2023/09/05 04:24:57;;;;;;;4.75;1.80;;;;;;;25.94;37.20;96623.47;5084599;28;20074;-27
2023/09/05 04:27:23;;;;;;;2.88;1.98;;;;;;;25.92;37.25;96630.81;5083940;28;20388;-27
2023/09/05 04:29:54;;;;;;;4.15;1.88;;;;;;;25.99;36.70;96638.53;5081072;28;20024;-27
2023/09/05 04:32:26;;;;;;;2.97;2.00;;;;;;;26.07;36.85;96637.44;5081639;28;20031;-27
2023/09/05 04:34:56;;;;;;;3.67;2.10;;;;;;;26.07;36.51;96640.22;5081720;28;20020;-27
2023/09/05 04:37:21;;;;;;;3.00;1.85;;;;;;;25.90;37.12;96636.91;5088004;28;20028;-27
2023/09/05 04:39:46;;;;;;;4.13;2.35;;;;;;;25.86;37.39;96636.44;5081944;28;20113;-27
2023/09/05 04:42:12;;;;;;;5.60;2.25;;;;;;;25.97;37.05;96641.09;5086039;28;20034;-27
2023/09/05 04:44:37;;;;;;;5.30;2.20;;;;;;;25.95;37.09;96661.09;5084030;28;20372;-27
2023/09/05 04:47:20;;;;;;;5.10;2.30;;;;;;;26.06;36.96;96660.94;5083769;28;20020;-27
2023/09/05 04:49:46;;;;;;;4.25;2.20;;;;;;;25.99;36.70;96664.31;5083529;28;20016;-28
2023/09/05 04:52:12;;;;;;;5.82;2.03;;;;;;;26.04;36.52;96669.06;5073971;28;20025;-27
2023/09/05 04:54:37;;;;;;;4.25;2.00;;;;;;;25.82;37.50;96666.56;5081092;28;20565;-26
2023/09/05 04:57:03;;;;;;;4.90;2.10;;;;;;;26.06;36.50;96666.50;5073060;28;20028;-27
2023/09/05 04:59:29;;;;;;;5.25;1.85;;;;;;;26.09;36.73;96662.66;5084139;28;20016;-26
2023/09/05 05:01:54;;;;;;;4.43;2.00;;;;;;;25.82;37.20;96669.34;5083662;28;20016;-27
2023/09/05 05:04:22;;;;;;;2.83;1.75;;;;;;;25.87;37.26;96659.41;5081340;28;20052;-26
2023/09/05 05:06:47;;;;;;;4.65;2.30;;;;;;;25.96;36.57;96668.16;5079918;28;20019;-27
2023/09/05 05:09:13;;;;;;;5.53;2.47;;;;;;;25.75;37.08;96659.53;5075346;28;20036;-29
2023/09/05 05:11:38;;;;;;;5.95;2.03;;;;;;;25.62;37.45;96661.47;5086809;28;20021;-27
2023/09/05 05:14:04;;;;;;;4.90;2.20;;;;;;;25.92;37.03;96650.25;5073340;28;20090;-26
2023/09/05 05:16:29;;;;;;;3.13;2.00;;;;;;;25.98;36.71;96648.16;5081046;28;20023;-27
2023/09/05 05:18:56;;;;;;;4.80;2.08;;;;;;;25.61;37.51;96643.28;5073535;28;20034;-27
2023/09/05 05:21:21;;;;;;;4.85;2.05;;;;;;;25.92;36.97;96645.47;5081348;28;20408;-27
2023/09/05 05:23:47;;;;;;;3.05;1.90;;;;;;;25.47;37.70;96644.44;5083841;28;20099;-27
2023/09/05 05:26:13;;;;;;;3.72;2.10;;;;;;;25.94;36.78;96636.59;5084022;28;20445;-28
2023/09/05 05:28:38;;;;;;;3.38;1.90;;;;;;;25.72;37.36;96649.47;5075428;28;20044;-27
2023/09/05 05:31:12;;;;;;;6.75;2.40;;;;;;;25.92;36.73;96644.72;5078527;28;20035;-27
2023/09/05 05:33:37;;;;;;;3.65;1.95;;;;;;;25.82;36.96;96649.88;5080749;28;20028;-27
2023/09/05 05:36:03;;;;;;;7.13;2.33;;;;;;;25.98;36.99;96656.50;5080331;28;20481;-27
2023/09/05 05:38:28;;;;;;;5.10;2.20;;;;;;;26.00;36.99;96651.91;5080460;28;20020;-27
2023/09/05 05:40:54;;;;;;;6.47;2.00;;;;;;;25.91;37.14;96662.66;5080617;28;20044;-27
2023/09/05 05:43:20;;;;;;;5.95;2.00;;;;;;;25.91;37.14;96655.06;5078843;28;20539;-27
2023/09/05 05:45:49;;;;;;;2.92;1.98;;;;;;;25.97;37.37;96666.84;5081772;28;20016;-27
2023/09/05 05:48:15;;;;;;;6.15;2.20;;;;;;;25.86;37.10;96652.34;5077681;28;20367;-27
2023/09/05 05:50:41;;;;;;;4.20;2.17;;;;;;;26.05;37.08;96661.47;5075546;28;20016;-26
2023/09/05 05:53:06;;;;;;;5.22;1.98;;;;;;;26.04;36.78;96657.19;5087502;28;20103;-27
2023/09/05 05:55:32;;;;;;;6.63;2.30;;;;;;;25.91;37.29;96651.53;5085999;28;20028;-28
2023/09/05 05:57:57;;;;;;;4.18;2.00;;;;;;;25.80;37.59;96652.44;5075036;28;20025;-27
2023/09/05 06:00:25;;;;;;;3.88;2.13;;;;;;;26.10;37.01;96647.50;5080111;28;20039;-27
2023/09/05 06:02:51;;;;;;;5.53;3.20;;;;;;;25.80;37.61;96649.66;5087582;28;20048;-27
2023/09/05 06:05:16;;;;;;;3.67;2.30;;;;;;;25.97;37.09;96657.75;5082098;28;20020;-27
2023/09/05 06:07:42;;;;;;;4.82;1.85;;;;;;;25.91;37.22;96646.72;5083593;28;20389;-27
2023/09/05 06:10:08;;;;;;;3.53;1.95;;;;;;;25.88;37.72;96650.56;5082375;28;20062;-27
2023/09/05 06:12:33;;;;;;;8.10;1.92;;;;;;;25.92;37.25;96645.47;5083671;28;20028;-26
2023/09/05 06:14:59;;;;;;;2.88;2.33;;;;;;;25.96;37.36;96634.06;5083725;28;20024;-27
2023/09/05 06:17:25;;;;;;;3.53;1.90;;;;;;;25.86;37.80;96639.22;5073089;28;20508;-26
2023/09/05 06:19:50;;;;;;;3.88;1.80;;;;;;;26.07;37.47;96640.22;5077898;28;20024;-26
2023/09/05 06:22:17;;;;;;;4.15;1.95;;;;;;;25.99;37.72;96638.53;5082213;28;20482;-27
2023/09/05 06:24:43;;;;;;;2.53;2.05;;;;;;;26.02;37.43;96638.25;5075991;28;20028;-27
2023/09/05 06:27:10;;;;;;;4.55;2.28;;;;;;;26.01;37.77;96647.88;5077247;28;20385;-27
2023/09/05 06:29:35;;;;;;;4.55;2.20;;;;;;;25.91;37.33;96652.28;5080565;28;20027;-26
2023/09/05 06:32:01;;;;;;;3.28;2.08;;;;;;;25.87;37.82;96651.81;5079609;28;20016;-27
2023/09/05 06:34:26;;;;;;;4.28;2.00;;;;;;;26.02;37.43;96649.38;5079636;28;20020;-27
2023/09/05 06:36:53;;;;;;;4.32;2.10;;;;;;;26.03;37.90;96661.25;5079773;28;20493;-27
2023/09/05 06:39:18;;;;;;;3.63;1.95;;;;;;;26.08;37.33;96652.84;5079972;28;20492;-27
2023/09/05 06:41:44;;;;;;;4.72;2.15;;;;;;;26.07;37.18;96651.34;5081335;28;20052;-27
2023/09/05 06:44:09;;;;;;;3.38;1.95;;;;;;;26.09;37.72;96654.31;5087165;28;20016;-27
2023/09/05 06:46:35;;;;;;;3.25;2.55;;;;;;;26.10;37.73;96650.28;5086338;28;20088;-27
2023/09/05 06:49:01;;;;;;;4.60;2.30;;;;;;;26.26;37.60;96639.47;5083158;28;20020;-28
2023/09/05 06:51:26;;;;;;;4.82;2.17;;;;;;;26.05;37.97;96642.78;5081117;28;20516;-27
2023/09/05 06:53:52;;;;;;;6.53;2.20;;;;;;;26.18;37.35;96644.88;5085937;28;20020;-28
2023/09/05 06:56:19;;;;;;;6.43;2.22;;;;;;;26.24;37.72;96645.53;5090581;28;20017;-27
2023/09/05 06:58:45;;;;;;;4.43;2.50;;;;;;;26.08;37.48;96652.84;5082968;28;20358;-26
2023/09/05 07:01:12;;;;;;;4.38;2.67;;;;;;;26.17;37.32;96653.75;5078338;28;20024;-27
2023/09/05 07:03:38;;;;;;;12.73;3.05;;;;;;;26.27;37.37;96649.31;5086280;28;20020;-26
2023/09/05 07:06:03;;;;;;;3.45;2.05;;;;;;;26.16;37.83;96655.03;5077507;28;20078;-27
2023/09/05 07:08:29;;;;;;;5.97;2.20;;;;;;;26.15;37.34;96653.50;5075516;28;20020;-27
2023/09/05 07:10:55;;;;;;;4.10;2.20;;;;;;;26.29;37.41;96646.78;5082739;28;20047;-26
2023/09/05 07:13:20;;;;;;;6.10;2.17;;;;;;;26.28;36.83;96648.81;5076385;28;20513;-28
2023/09/05 07:15:46;;;;;;;4.00;2.30;;;;;;;26.33;36.90;96656.34;5087791;28;20023;-27
2023/09/05 07:18:12;;;;;;;6.28;2.72;;;;;;;26.31;36.76;96664.44;5084808;28;20103;-26
2023/09/05 07:20:38;;;;;;;5.35;2.55;;;;;;;26.08;37.48;96655.63;5085892;28;20016;-27
2023/09/05 07:23:04;;;;;;;3.88;2.00;;;;;;;26.19;36.86;96660.28;5080123;28;20024;-27
2023/09/05 07:25:29;;;;;;;4.28;2.20;;;;;;;26.22;36.94;96652.91;5083076;28;20477;-27
2023/09/05 07:27:55;;;;;;;5.18;2.17;;;;;;;26.39;36.63;96645.13;5082796;28;20047;-27
2023/09/05 07:30:21;;;;;;;4.57;2.17;;;;;;;26.36;36.65;96652.47;5082512;28;20024;-27
2023/09/05 07:32:46;;;;;;;3.97;2.58;;;;;;;26.31;36.80;96641.47;5085306;28;20017;-27
2023/09/05 07:35:12;;;;;;;5.07;2.00;;;;;;;26.27;36.77;96638.19;5085528;28;20031;-27
2023/09/05 07:37:38;;;;;;;4.55;2.30;;;;;;;26.31;36.45;96647.78;5076859;28;20024;-28
2023/09/05 07:40:05;;;;;;;3.55;2.10;;;;;;;26.45;36.51;96631.91;5085978;28;20048;-26
2023/09/05 07:42:31;;;;;;;3.20;2.10;;;;;;;26.39;36.42;96637.53;5078397;28;20094;-27
2023/09/05 07:44:57;;;;;;;3.78;1.90;;;;;;;26.39;36.91;96637.53;5082499;28;20482;-27
2023/09/05 07:47:23;;;;;;;6.53;2.30;;;;;;;26.49;36.34;96646.25;5088222;28;20048;-28
2023/09/05 07:49:48;;;;;;;5.22;2.10;;;;;;;26.56;36.33;96634.53;5076344;28;20105;-27
2023/09/05 07:52:14;;;;;;;7.53;2.05;;;;;;;26.50;35.75;96633.09;5082747;28;20111;-26
2023/09/05 07:54:39;;;;;;;4.50;2.42;;;;;;;26.57;35.55;96633.25;5082505;28;20032;-27
2023/09/05 07:57:05;;;;;;;2.88;1.70;;;;;;;26.52;35.64;96631.28;5082090;28;20107;-26
2023/09/05 07:59:31;;;;;;;4.00;1.80;;;;;;;26.60;35.60;96632.16;5082197;28;20024;-28
2023/09/05 08:01:57;;;;;;;5.53;2.30;;;;;;;26.63;35.24;96628.34;5081746;28;20492;-27
2023/09/05 08:04:22;;;;;;;6.45;2.38;;;;;;;26.45;35.12;96637.47;5082030;28;20028;-27
2023/09/05 08:06:48;;;;;;;4.70;2.15;;;;;;;26.64;35.15;96626.31;5081208;28;20479;-27
2023/09/05 08:09:14;;;;;;;4.15;2.08;;;;;;;26.61;35.20;96628.09;5083563;28;20024;-26
2023/09/05 08:11:39;;;;;;;8.13;2.70;;;;;;;26.78;34.95;96622.28;5082057;28;20028;-26
2023/09/05 08:14:05;;;;;;;4.50;2.33;;;;;;;26.79;35.33;96624.53;5082169;28;20470;-26
2023/09/05 08:16:31;;;;;;;4.35;2.03;;;;;;;26.75;35.05;96632.44;5089211;28;20409;-26
2023/09/05 08:18:56;;;;;;;3.22;2.08;;;;;;;26.71;35.08;96623.63;5082273;28;20071;-27
2023/09/05 08:21:22;;;;;;;4.22;2.17;;;;;;;26.88;35.07;96619.84;5081884;28;20139;-26
2023/09/05 08:23:50;;;;;;;4.35;2.00;;;;;;;26.82;34.63;96620.72;5077998;28;20020;-27
2023/09/05 08:26:16;;;;;;;4.80;1.92;;;;;;;26.81;35.24;96621.22;5083991;28;20028;-27
2023/09/05 08:28:44;;;;;;;4.18;2.10;;;;;;;26.88;34.24;96622.63;5081636;28;20039;-26
2023/09/05 08:31:10;;;;;;;4.22;2.10;;;;;;;26.92;34.45;96615.47;5072785;28;20036;-27
2023/09/05 08:33:35;;;;;;;2.90;2.10;;;;;;;27.01;34.18;96612.31;5082589;28;20032;-27
2023/09/05 08:36:03;;;;;;;5.03;2.38;;;;;;;26.98;33.86;96627.28;5084821;28;20016;-27
2023/09/05 08:38:28;;;;;;;6.45;2.08;;;;;;;27.02;34.08;96618.63;5083793;28;20024;-27
2023/09/05 08:41:00;;;;;;;5.35;2.30;;;;;;;27.00;34.50;96623.97;5083364;28;20413;-26
2023/09/05 08:43:26;;;;;;;4.85;2.08;;;;;;;27.31;34.04;96625.97;5085250;28;20047;-27
2023/09/05 08:45:53;;;;;;;4.57;2.10;;;;;;;27.26;33.49;96626.81;5082197;28;20108;-26
2023/09/05 08:48:19;;;;;;;2.75;1.88;;;;;;;27.20;33.86;96617.06;5087157;28;20715;-27
2023/09/05 08:50:45;;;;;;;4.55;2.10;;;;;;;27.16;34.22;96606.25;5080550;28;20107;-26
2023/09/05 08:53:14;;;;;;;5.50;2.17;;;;;;;27.27;33.84;96594.91;5083879;28;20095;-27
2023/09/05 08:55:40;;;;;;;7.78;2.10;;;;;;;27.28;34.12;96596.41;5077003;28;20385;-27
2023/09/05 08:58:17;;;;;;;3.35;2.00;;;;;;;27.28;34.29;96613.09;5088226;28;20032;-27
2023/09/05 09:00:44;;;;;;;3.55;2.10;;;;;;;27.37;34.09;96607.13;5087753;28;20055;-27
2023/09/05 09:03:09;;;;;;;2.53;1.83;;;;;;;27.48;33.93;96597.78;5075537;28;20111;-27
2023/09/05 09:05:37;;;;;;;5.68;1.90;;;;;;;27.35;34.23;96600.56;5083625;28;20549;-26
2023/09/05 09:08:04;;;;;;;4.10;2.00;;;;;;;27.31;33.97;96595.34;5083192;28;20416;-26
2023/09/05 09:10:29;;;;;;;5.50;2.38;;;;;;;27.40;34.03;96602.50;5084259;28;20023;-27
2023/09/05 09:13:12;;;;;;;4.45;1.80;;;;;;;27.37;33.80;96592.44;5076314;28;20366;-27
2023/09/05 09:15:43;;;;;;;3.63;1.90;;;;;;;27.51;33.92;96608.63;5073988;28;20016;-28
2023/09/05 09:18:12;;;;;;;5.75;2.03;;;;;;;27.39;33.64;96596.19;5080897;28;20048;-27
2023/09/05 09:20:45;;;;;;;4.00;2.00;;;;;;;27.44;34.09;96597.38;5080686;28;20031;-26
2023/09/05 09:23:10;;;;;;;5.13;2.03;;;;;;;27.43;34.32;96593.84;5087939;28;20024;-26
2023/09/05 09:25:46;;;;;;;3.50;1.90;;;;;;;27.34;34.17;96599.81;5082828;28;20091;-27
2023/09/05 09:28:23;;;;;;;4.53;2.53;;;;;;;27.45;34.19;96599.59;5075995;28;20390;-26
2023/09/05 09:31:03;;;;;;;3.05;1.75;;;;;;;27.48;34.15;96606.91;5080836;28;20386;-26
2023/09/05 09:33:31;;;;;;;3.08;1.90;;;;;;;27.51;33.42;96597.47;5079922;28;20115;-27
2023/09/05 09:36:04;;;;;;;3.92;2.10;;;;;;;27.72;33.18;96605.19;5080654;28;20024;-27
2023/09/05 09:38:30;;;;;;;3.95;1.77;;;;;;;27.56;32.91;96592.38;5073040;28;20069;-28
2023/09/05 09:40:57;;;;;;;5.20;1.95;;;;;;;27.53;33.20;96571.88;5080840;28;20044;-26
2023/09/05 09:43:22;;;;;;;2.03;1.77;;;;;;;27.65;33.39;96572.44;5080349;28;20024;-27
2023/09/05 09:45:48;;;;;;;3.67;2.15;;;;;;;27.59;33.32;96560.63;5080423;28;20027;-27
2023/09/05 09:48:15;;;;;;;6.13;2.33;;;;;;;27.57;33.06;96574.38;5076968;28;20024;-27
2023/09/05 09:50:43;;;;;;;3.15;2.03;;;;;;;27.65;33.29;96562.03;5082644;28;20380;-27
2023/09/05 09:53:12;;;;;;;6.82;2.08;;;;;;;27.65;32.77;96567.59;5087380;28;20017;-27
2023/09/05 09:55:43;;;;;;;2.97;1.92;;;;;;;27.48;32.92;96576.25;5073279;28;20025;-27
2023/09/05 09:58:14;;;;;;;6.47;2.22;;;;;;;27.73;33.09;96573.25;5075596;28;20051;-27
2023/09/05 10:00:45;;;;;;;3.47;2.13;;;;;;;27.63;33.17;96563.84;5077854;28;20028;-27
2023/09/05 10:03:13;;;;;;;3.67;2.17;;;;;;;27.68;32.53;96565.78;5081806;28;20028;-27
2023/09/05 10:05:41;;;;;;;4.22;1.98;;;;;;;27.68;32.98;96563.75;5083363;28;20035;-28
2023/09/05 10:08:09;;;;;;;5.03;1.80;;;;;;;27.72;32.29;96546.69;5075210;28;20032;-27
2023/09/05 10:10:38;;;;;;;3.47;2.00;;;;;;;27.83;32.57;96532.50;5080210;28;20407;-27
2023/09/05 10:13:08;;;;;;;5.13;2.25;;;;;;;27.89;32.68;96525.53;5079880;28;20492;-27
2023/09/05 10:15:36;;;;;;;3.20;2.00;;;;;;;27.78;32.77;96523.00;5080185;28;20067;-27
2023/09/05 10:18:02;;;;;;;2.35;1.67;;;;;;;27.79;32.83;96534.91;5083997;28;20044;-27
2023/09/05 10:20:28;;;;;;;3.38;2.10;;;;;;;27.71;32.39;96518.06;5085424;28;20135;-27
2023/09/05 10:22:53;;;;;;;3.58;2.30;;;;;;;27.64;32.22;96534.72;5087499;28;20020;-27
2023/09/05 10:25:21;;;;;;;3.47;2.22;;;;;;;27.78;31.95;96541.75;5086222;28;20535;-27
2023/09/05 10:27:46;;;;;;;4.88;2.15;;;;;;;27.81;31.69;96516.34;5080216;28;20024;-26
2023/09/05 10:30:12;;;;;;;5.20;1.95;;;;;;;27.95;32.40;96519.84;5086945;28;20028;-27
2023/09/05 10:32:42;;;;;;;4.72;2.17;;;;;;;27.92;31.80;96512.56;5078604;28;20028;-27
2023/09/05 10:35:07;;;;;;;2.90;1.92;;;;;;;27.89;31.80;96514.41;5086681;28;20016;-27
2023/09/05 10:37:33;;;;;;;5.20;2.10;;;;;;;27.94;32.06;96510.00;5078884;28;20528;-27
2023/09/05 10:40:07;;;;;;;3.17;1.85;;;;;;;27.92;31.94;96495.84;5083832;28;20051;-27
2023/09/05 10:42:34;;;;;;;5.93;2.03;;;;;;;28.03;31.90;96487.22;5090788;28;20024;-26
2023/09/05 10:45:35;;;;;;;2.97;1.90;;;;;;;27.88;32.37;96496.16;5086302;28;20067;-28
2023/09/05 10:48:12;;;;;;;4.63;2.13;;;;;;;27.94;32.06;96479.34;5078819;28;20059;-27
2023/09/05 10:51:03;;;;;;;3.65;1.90;;;;;;;28.12;31.96;96481.19;5079077;28;20431;-27
2023/09/05 10:53:28;;;;;;;2.53;1.90;;;;;;;27.96;32.09;96465.59;5076382;28;20016;-27
2023/09/05 10:55:55;;;;;;;3.10;1.88;;;;;;;27.89;32.17;96469.06;5083718;28;20021;-26
2023/09/05 10:58:43;;;;;;;5.03;1.92;;;;;;;27.84;31.14;96469.91;5083533;28;20043;-27
2023/09/05 11:01:29;;;;;;;4.60;2.22;;;;;;;27.99;31.82;96461.72;5090402;28;20093;-27
2023/09/05 11:04:03;;;;;;;2.47;1.90;;;;;;;28.02;31.47;96452.28;5075664;28;20022;-28
2023/09/05 11:06:30;;;;;;;3.50;2.10;;;;;;;28.05;31.23;96467.91;5076093;28;20099;-27
2023/09/05 11:09:04;;;;;;;2.95;1.95;;;;;;;27.86;31.02;96464.56;5082557;28;20060;-26
2023/09/05 11:11:30;;;;;;;5.13;2.65;;;;;;;27.96;31.08;96443.28;5078841;28;20406;-27
2023/09/05 11:13:57;;;;;;;3.25;2.03;;;;;;;28.03;30.98;96462.13;5079562;28;20028;-28
2023/09/05 11:16:22;;;;;;;2.42;1.95;;;;;;;28.01;30.97;96464.72;5083402;28;20385;-26
2023/09/05 11:18:55;;;;;;;3.58;1.88;;;;;;;28.09;31.30;96451.59;5075686;28;20020;-27
2023/09/05 11:21:22;;;;;;;3.13;1.90;;;;;;;28.21;30.61;96455.63;5082384;28;20024;-27
2023/09/05 11:23:52;;;;;;;2.75;1.90;;;;;;;28.13;30.64;96454.78;5076005;28;20024;-26
2023/09/05 11:26:18;;;;;;;3.05;1.90;;;;;;;28.01;31.11;96441.66;5090407;28;20102;-26
2023/09/05 11:28:45;;;;;;;2.78;2.10;;;;;;;28.12;31.18;96431.00;5081703;28;20031;-27
2023/09/05 11:31:11;;;;;;;3.38;1.90;;;;;;;28.11;31.12;96449.00;5082801;28;20066;-26
2023/09/05 11:33:37;;;;;;;3.90;1.92;;;;;;;28.11;31.35;96465.00;5075767;28;20032;-28